03:11
Airports
History
Links
Donate
Help keep this website running!
PayPal
Bitcoin
This page is community maintained. The information is intended for PC simulator navigation or reference.
Always use approved charts for navigation.
4MD1
Buntings Field
Buntings Field (4MD1)
Berlin, Maryland, United States (21811)
4
Lat/Lng:38° 22' 5.42" N / 75° 13' 50.68" W
38.368171 / -75.230745
Elevation:5'ft / 2mMSL
ID / ICAO:4MD1
Runways:1
Longest:18-36
Grass 917m / 3,010ft
Nearby Weather02:54 GMT 2018-02-21
Nearby weather at KSBY, Salisbury-ocean City Wicomico located 15.2 nautical miles from 4MD1
Altimeter: 30.40
Visibility: 9.0 statute miles
Wind: 6 knots (from 190°)
Temp: 17°c / 63°f
Humidity: 100.0%

METAR: KSBY 210254Z 19006KT 9SM SCT028 BKN034 OVC043 17/17 A3040 RMK AO2 SLP295 T01720167 51002

(Powered by phpweather)
Nearby VORs <50NM
Nearby NDBs
Runway 18 / 36
Dimensions:917.3 x 15.2m 3010' x 50'ft
Surface:Grass
Runway 18 [A]Runway 36 [B]
Heading:168°TH 348°TH
Lat:
Lng:
38° 22' 19.95"N
75° 13' 54.29"W
38° 21' 50.87"N
75° 13' 47.08"W
User Notes and Comments
38° 22' 5.42" N / 75° 13' 50.68" W
Distance To
Airport ID:
Nearby Airports
(R) Carey Field 6.3 NM
4MD3 NE 37°
(U) Ocean City Muni 7.0 NM
KOXB SE 124°
4 Warrington Field 7.2 NM
0N7 NNE 24°
(R) Delmarvair 10.6 NM
6MD8 WNW 298°
(R) West Pvt 10.9 NM
DE21 NNE 18°
(C) Salisbury-ocean City Wicomico 15.2 NM
KSBY ( WX ) W 262°
(R) Ennis Aerodrome 17.8 NM
2MD4 W 275°
VFR Chart
Flight Planning at SkyVector.com